sensor_id;sensor_type;location;lat;lon;timestamp;temperature;humidity
18513;DHT22;9385;48.380;9.744;2023-02-03T00:02:08;6.40;99.90
18513;DHT22;9385;48.380;9.744;2023-02-03T00:04:34;6.40;99.90
18513;DHT22;9385;48.380;9.744;2023-02-03T00:07:01;6.40;99.90
18513;DHT22;9385;48.380;9.744;2023-02-03T00:09:28;6.50;99.90
18513;DHT22;9385;48.380;9.744;2023-02-03T00:11:55;6.50;99.90
18513;DHT22;9385;48.380;9.744;2023-02-03T00:14:22;6.50;99.90
18513;DHT22;9385;48.380;9.744;2023-02-03T00:16:49;6.40;99.90
18513;DHT22;9385;48.380;9.744;2023-02-03T00:19:17;6.40;99.90
18513;DHT22;9385;48.380;9.744;2023-02-03T00:21:44;6.40;99.90
18513;DHT22;9385;48.380;9.744;2023-02-03T00:24:11;6.40;99.90
18513;DHT22;9385;48.380;9.744;2023-02-03T00:26:40;6.40;99.90
18513;DHT22;9385;48.380;9.744;2023-02-03T00:29:07;6.40;99.90
18513;DHT22;9385;48.380;9.744;2023-02-03T00:31:34;6.40;99.90
18513;DHT22;9385;48.380;9.744;2023-02-03T00:34:01;6.40;99.90
18513;DHT22;9385;48.380;9.744;2023-02-03T00:36:29;6.40;99.90
18513;DHT22;9385;48.380;9.744;2023-02-03T00:38:56;6.40;99.90
18513;DHT22;9385;48.380;9.744;2023-02-03T00:41:28;6.40;99.90
18513;DHT22;9385;48.380;9.744;2023-02-03T00:43:54;6.40;99.90
18513;DHT22;9385;48.380;9.744;2023-02-03T00:46:21;6.40;99.90
18513;DHT22;9385;48.380;9.744;2023-02-03T00:48:48;6.40;99.90
18513;DHT22;9385;48.380;9.744;2023-02-03T00:51:15;6.40;99.90
18513;DHT22;9385;48.380;9.744;2023-02-03T00:53:43;6.40;99.90
18513;DHT22;9385;48.380;9.744;2023-02-03T00:56:10;6.30;99.90
18513;DHT22;9385;48.380;9.744;2023-02-03T00:58:38;6.30;99.90
18513;DHT22;9385;48.380;9.744;2023-02-03T01:01:04;6.30;99.90
18513;DHT22;9385;48.380;9.744;2023-02-03T01:03:34;6.30;99.90
18513;DHT22;9385;48.380;9.744;2023-02-03T01:06:10;6.30;99.90
18513;DHT22;9385;48.380;9.744;2023-02-03T01:08:37;6.30;99.90
18513;DHT22;9385;48.380;9.744;2023-02-03T01:11:10;6.30;99.90
18513;DHT22;9385;48.380;9.744;2023-02-03T01:13:38;6.40;99.90
18513;DHT22;9385;48.380;9.744;2023-02-03T01:16:06;6.40;99.90
18513;DHT22;9385;48.380;9.744;2023-02-03T01:18:33;6.40;99.90
18513;DHT22;9385;48.380;9.744;2023-02-03T01:21:04;6.40;99.90
18513;DHT22;9385;48.380;9.744;2023-02-03T01:23:31;6.40;99.90
18513;DHT22;9385;48.380;9.744;2023-02-03T01:26:01;6.50;99.90
18513;DHT22;9385;48.380;9.744;2023-02-03T01:28:29;6.50;99.90
18513;DHT22;9385;48.380;9.744;2023-02-03T01:30:56;6.50;99.90
18513;DHT22;9385;48.380;9.744;2023-02-03T01:33:23;6.40;99.90
18513;DHT22;9385;48.380;9.744;2023-02-03T01:35:50;6.40;99.90
18513;DHT22;9385;48.380;9.744;2023-02-03T01:38:17;6.40;99.90
18513;DHT22;9385;48.380;9.744;2023-02-03T01:40:44;6.40;99.90
18513;DHT22;9385;48.380;9.744;2023-02-03T01:43:10;6.40;99.90
18513;DHT22;9385;48.380;9.744;2023-02-03T01:45:39;6.50;99.90
18513;DHT22;9385;48.380;9.744;2023-02-03T01:48:07;6.50;99.90
18513;DHT22;9385;48.380;9.744;2023-02-03T01:50:35;6.40;99.90
18513;DHT22;9385;48.380;9.744;2023-02-03T01:53:06;6.50;99.90
18513;DHT22;9385;48.380;9.744;2023-02-03T01:55:37;6.50;99.90
18513;DHT22;9385;48.380;9.744;2023-02-03T01:58:09;6.50;99.90
18513;DHT22;9385;48.380;9.744;2023-02-03T02:00:38;6.50;99.90
18513;DHT22;9385;48.380;9.744;2023-02-03T02:03:07;6.60;99.90
18513;DHT22;9385;48.380;9.744;2023-02-03T02:05:37;6.50;99.90
18513;DHT22;9385;48.380;9.744;2023-02-03T02:08:06;6.50;99.90
18513;DHT22;9385;48.380;9.744;2023-02-03T02:10:34;6.50;99.90
18513;DHT22;9385;48.380;9.744;2023-02-03T02:13:02;6.50;99.90
18513;DHT22;9385;48.380;9.744;2023-02-03T02:15:37;6.50;99.90
18513;DHT22;9385;48.380;9.744;2023-02-03T02:18:24;6.50;99.90
18513;DHT22;9385;48.380;9.744;2023-02-03T02:24:10;6.60;99.90
18513;DHT22;9385;48.380;9.744;2023-02-03T02:26:56;6.50;99.90
18513;DHT22;9385;48.380;9.744;2023-02-03T02:30:05;6.50;99.90
18513;DHT22;9385;48.380;9.744;2023-02-03T02:32:46;6.60;99.90
18513;DHT22;9385;48.380;9.744;2023-02-03T02:35:21;6.50;99.90
18513;DHT22;9385;48.380;9.744;2023-02-03T02:37:54;6.50;99.90
18513;DHT22;9385;48.380;9.744;2023-02-03T02:40:31;6.50;99.90
18513;DHT22;9385;48.380;9.744;2023-02-03T02:43:05;6.50;99.90
18513;DHT22;9385;48.380;9.744;2023-02-03T02:45:40;6.50;99.90
18513;DHT22;9385;48.380;9.744;2023-02-03T02:48:16;6.50;99.90
18513;DHT22;9385;48.380;9.744;2023-02-03T02:50:49;6.50;99.90
18513;DHT22;9385;48.380;9.744;2023-02-03T02:53:20;6.50;99.90
18513;DHT22;9385;48.380;9.744;2023-02-03T02:55:47;6.50;99.90
18513;DHT22;9385;48.380;9.744;2023-02-03T02:58:15;6.50;99.90
18513;DHT22;9385;48.380;9.744;2023-02-03T03:00:44;6.50;99.90
18513;DHT22;9385;48.380;9.744;2023-02-03T03:03:16;6.50;99.90
18513;DHT22;9385;48.380;9.744;2023-02-03T03:05:47;6.50;99.90
18513;DHT22;9385;48.380;9.744;2023-02-03T03:08:15;6.50;99.90
18513;DHT22;9385;48.380;9.744;2023-02-03T03:10:45;6.60;99.90
18513;DHT22;9385;48.380;9.744;2023-02-03T03:13:18;6.50;99.90
18513;DHT22;9385;48.380;9.744;2023-02-03T03:15:50;6.50;99.90
18513;DHT22;9385;48.380;9.744;2023-02-03T03:18:22;6.50;99.90
18513;DHT22;9385;48.380;9.744;2023-02-03T03:20:52;6.50;99.90
18513;DHT22;9385;48.380;9.744;2023-02-03T03:23:24;6.60;99.90
18513;DHT22;9385;48.380;9.744;2023-02-03T03:25:58;6.50;99.90
18513;DHT22;9385;48.380;9.744;2023-02-03T03:28:32;6.50;99.90
18513;DHT22;9385;48.380;9.744;2023-02-03T03:31:01;6.50;99.90
18513;DHT22;9385;48.380;9.744;2023-02-03T03:33:29;6.50;99.90
18513;DHT22;9385;48.380;9.744;2023-02-03T03:36:00;6.50;99.90
18513;DHT22;9385;48.380;9.744;2023-02-03T03:38:33;6.60;99.90
18513;DHT22;9385;48.380;9.744;2023-02-03T03:41:05;6.50;99.90
18513;DHT22;9385;48.380;9.744;2023-02-03T03:43:38;6.60;99.90
18513;DHT22;9385;48.380;9.744;2023-02-03T03:46:11;6.60;99.90
18513;DHT22;9385;48.380;9.744;2023-02-03T03:48:43;6.60;99.90
18513;DHT22;9385;48.380;9.744;2023-02-03T03:51:18;6.50;99.90
18513;DHT22;9385;48.380;9.744;2023-02-03T03:53:49;6.60;99.90
18513;DHT22;9385;48.380;9.744;2023-02-03T03:56:20;6.50;99.90
18513;DHT22;9385;48.380;9.744;2023-02-03T03:58:49;6.60;99.90
18513;DHT22;9385;48.380;9.744;2023-02-03T04:01:20;6.50;99.90
18513;DHT22;9385;48.380;9.744;2023-02-03T04:03:53;6.60;99.90
18513;DHT22;9385;48.380;9.744;2023-02-03T04:06:21;6.60;99.90
18513;DHT22;9385;48.380;9.744;2023-02-03T04:08:47;6.60;99.90
18513;DHT22;9385;48.380;9.744;2023-02-03T04:11:14;6.50;99.90
18513;DHT22;9385;48.380;9.744;2023-02-03T04:14:01;6.50;99.90
18513;DHT22;9385;48.380;9.744;2023-02-03T04:16:28;6.50;99.90
18513;DHT22;9385;48.380;9.744;2023-02-03T04:18:56;6.50;99.90
18513;DHT22;9385;48.380;9.744;2023-02-03T04:21:23;6.50;99.90
18513;DHT22;9385;48.380;9.744;2023-02-03T04:23:49;6.50;99.90
18513;DHT22;9385;48.380;9.744;2023-02-03T04:26:17;6.50;99.90
18513;DHT22;9385;48.380;9.744;2023-02-03T04:28:43;6.50;99.90
18513;DHT22;9385;48.380;9.744;2023-02-03T04:31:10;6.50;99.90
18513;DHT22;9385;48.380;9.744;2023-02-03T04:33:37;6.50;99.90
18513;DHT22;9385;48.380;9.744;2023-02-03T04:36:06;6.60;99.90
18513;DHT22;9385;48.380;9.744;2023-02-03T04:38:33;6.50;99.90
18513;DHT22;9385;48.380;9.744;2023-02-03T04:41:00;6.50;99.90
18513;DHT22;9385;48.380;9.744;2023-02-03T04:43:26;6.50;99.90
18513;DHT22;9385;48.380;9.744;2023-02-03T04:45:53;6.50;99.90
18513;DHT22;9385;48.380;9.744;2023-02-03T04:48:20;6.50;99.90
18513;DHT22;9385;48.380;9.744;2023-02-03T04:50:47;6.50;99.90
18513;DHT22;9385;48.380;9.744;2023-02-03T04:53:15;6.50;99.90
18513;DHT22;9385;48.380;9.744;2023-02-03T04:55:45;6.50;99.90
18513;DHT22;9385;48.380;9.744;2023-02-03T04:58:12;6.50;99.90
18513;DHT22;9385;48.380;9.744;2023-02-03T05:00:39;6.50;99.90
18513;DHT22;9385;48.380;9.744;2023-02-03T05:03:06;6.50;99.90
18513;DHT22;9385;48.380;9.744;2023-02-03T05:05:33;6.50;99.90
18513;DHT22;9385;48.380;9.744;2023-02-03T05:07:59;6.50;99.90
18513;DHT22;9385;48.380;9.744;2023-02-03T05:10:27;6.50;99.90
18513;DHT22;9385;48.380;9.744;2023-02-03T05:12:54;6.50;99.90
18513;DHT22;9385;48.380;9.744;2023-02-03T05:15:21;6.50;99.90
18513;DHT22;9385;48.380;9.744;2023-02-03T05:17:50;6.50;99.90
18513;DHT22;9385;48.380;9.744;2023-02-03T05:20:17;6.50;99.90
18513;DHT22;9385;48.380;9.744;2023-02-03T05:22:44;6.50;99.90
18513;DHT22;9385;48.380;9.744;2023-02-03T05:25:11;6.50;99.90
18513;DHT22;9385;48.380;9.744;2023-02-03T05:27:40;6.50;99.90
18513;DHT22;9385;48.380;9.744;2023-02-03T05:30:08;6.50;99.90
18513;DHT22;9385;48.380;9.744;2023-02-03T05:32:35;6.50;99.90
18513;DHT22;9385;48.380;9.744;2023-02-03T05:35:02;6.40;99.90
18513;DHT22;9385;48.380;9.744;2023-02-03T05:37:29;6.40;99.90
18513;DHT22;9385;48.380;9.744;2023-02-03T05:39:56;6.40;99.90
18513;DHT22;9385;48.380;9.744;2023-02-03T05:42:48;6.40;99.90
18513;DHT22;9385;48.380;9.744;2023-02-03T05:45:14;6.40;99.90
18513;DHT22;9385;48.380;9.744;2023-02-03T05:47:41;6.40;99.90
18513;DHT22;9385;48.380;9.744;2023-02-03T05:50:08;6.40;99.90
18513;DHT22;9385;48.380;9.744;2023-02-03T05:52:35;6.40;99.90
18513;DHT22;9385;48.380;9.744;2023-02-03T05:55:02;6.30;99.90
18513;DHT22;9385;48.380;9.744;2023-02-03T05:57:29;6.30;99.90
18513;DHT22;9385;48.380;9.744;2023-02-03T05:59:57;6.30;99.90
18513;DHT22;9385;48.380;9.744;2023-02-03T06:02:24;6.30;99.90
18513;DHT22;9385;48.380;9.744;2023-02-03T06:04:51;6.30;99.90
18513;DHT22;9385;48.380;9.744;2023-02-03T06:07:17;6.30;99.90
18513;DHT22;9385;48.380;9.744;2023-02-03T06:09:44;6.30;99.90
18513;DHT22;9385;48.380;9.744;2023-02-03T06:12:11;6.30;99.90
18513;DHT22;9385;48.380;9.744;2023-02-03T06:14:38;6.30;99.90
18513;DHT22;9385;48.380;9.744;2023-02-03T06:17:06;6.30;99.90
18513;DHT22;9385;48.380;9.744;2023-02-03T06:19:32;6.30;99.90
18513;DHT22;9385;48.380;9.744;2023-02-03T06:21:59;6.30;99.90
18513;DHT22;9385;48.380;9.744;2023-02-03T06:24:28;6.30;99.90
18513;DHT22;9385;48.380;9.744;2023-02-03T06:26:54;6.30;99.90
18513;DHT22;9385;48.380;9.744;2023-02-03T06:29:21;6.20;99.90
18513;DHT22;9385;48.380;9.744;2023-02-03T06:31:48;6.20;99.90
18513;DHT22;9385;48.380;9.744;2023-02-03T06:34:16;6.20;99.90
18513;DHT22;9385;48.380;9.744;2023-02-03T06:36:43;6.20;99.90
18513;DHT22;9385;48.380;9.744;2023-02-03T06:39:10;6.20;99.90
18513;DHT22;9385;48.380;9.744;2023-02-03T06:41:36;6.20;99.90
18513;DHT22;9385;48.380;9.744;2023-02-03T06:44:03;6.20;99.90
18513;DHT22;9385;48.380;9.744;2023-02-03T06:46:30;6.10;99.90
18513;DHT22;9385;48.380;9.744;2023-02-03T06:48:58;6.10;99.90
18513;DHT22;9385;48.380;9.744;2023-02-03T06:51:26;6.10;99.90
18513;DHT22;9385;48.380;9.744;2023-02-03T06:53:53;6.10;99.90
18513;DHT22;9385;48.380;9.744;2023-02-03T06:56:20;6.10;99.90
18513;DHT22;9385;48.380;9.744;2023-02-03T06:58:47;6.10;99.90
18513;DHT22;9385;48.380;9.744;2023-02-03T07:01:13;6.10;99.90
18513;DHT22;9385;48.380;9.744;2023-02-03T07:03:40;6.10;99.90
18513;DHT22;9385;48.380;9.744;2023-02-03T07:06:07;6.10;99.90
18513;DHT22;9385;48.380;9.744;2023-02-03T07:08:35;6.10;99.90
18513;DHT22;9385;48.380;9.744;2023-02-03T07:11:02;6.00;99.90
18513;DHT22;9385;48.380;9.744;2023-02-03T07:13:29;6.10;99.90
18513;DHT22;9385;48.380;9.744;2023-02-03T07:15:55;6.10;99.90
18513;DHT22;9385;48.380;9.744;2023-02-03T07:18:22;6.00;99.90
18513;DHT22;9385;48.380;9.744;2023-02-03T07:20:51;6.00;99.90
18513;DHT22;9385;48.380;9.744;2023-02-03T07:23:18;6.00;99.90
18513;DHT22;9385;48.380;9.744;2023-02-03T07:25:46;5.90;99.90
18513;DHT22;9385;48.380;9.744;2023-02-03T07:28:13;5.90;99.90
18513;DHT22;9385;48.380;9.744;2023-02-03T07:30:40;5.90;99.90
18513;DHT22;9385;48.380;9.744;2023-02-03T07:33:07;5.90;99.90
18513;DHT22;9385;48.380;9.744;2023-02-03T07:35:33;6.00;99.90
18513;DHT22;9385;48.380;9.744;2023-02-03T07:38:00;6.00;99.90
18513;DHT22;9385;48.380;9.744;2023-02-03T07:40:27;5.90;99.90
18513;DHT22;9385;48.380;9.744;2023-02-03T07:42:55;5.90;99.90
18513;DHT22;9385;48.380;9.744;2023-02-03T07:45:23;5.90;99.90
18513;DHT22;9385;48.380;9.744;2023-02-03T07:47:50;5.90;99.90
18513;DHT22;9385;48.380;9.744;2023-02-03T07:50:17;6.00;99.90
18513;DHT22;9385;48.380;9.744;2023-02-03T07:52:44;6.00;99.90
18513;DHT22;9385;48.380;9.744;2023-02-03T07:55:11;6.00;99.90
18513;DHT22;9385;48.380;9.744;2023-02-03T07:57:38;6.00;99.90
18513;DHT22;9385;48.380;9.744;2023-02-03T08:00:10;6.10;99.90
18513;DHT22;9385;48.380;9.744;2023-02-03T08:02:38;6.10;99.90
18513;DHT22;9385;48.380;9.744;2023-02-03T08:05:05;6.10;99.90
18513;DHT22;9385;48.380;9.744;2023-02-03T08:07:32;6.10;99.90
18513;DHT22;9385;48.380;9.744;2023-02-03T08:09:59;6.10;99.90
18513;DHT22;9385;48.380;9.744;2023-02-03T08:12:26;6.10;99.90
18513;DHT22;9385;48.380;9.744;2023-02-03T08:14:53;6.10;99.90
18513;DHT22;9385;48.380;9.744;2023-02-03T08:17:21;6.10;99.90
18513;DHT22;9385;48.380;9.744;2023-02-03T08:19:48;6.10;99.90
18513;DHT22;9385;48.380;9.744;2023-02-03T08:22:15;6.00;99.90
18513;DHT22;9385;48.380;9.744;2023-02-03T08:24:42;6.00;99.90
18513;DHT22;9385;48.380;9.744;2023-02-03T08:27:10;6.00;99.90
18513;DHT22;9385;48.380;9.744;2023-02-03T08:29:37;6.00;99.90
18513;DHT22;9385;48.380;9.744;2023-02-03T08:32:04;6.00;99.90
18513;DHT22;9385;48.380;9.744;2023-02-03T08:34:32;6.10;99.90
18513;DHT22;9385;48.380;9.744;2023-02-03T08:36:59;6.10;99.90
18513;DHT22;9385;48.380;9.744;2023-02-03T08:39:26;6.10;99.90
18513;DHT22;9385;48.380;9.744;2023-02-03T08:41:53;6.10;99.90
18513;DHT22;9385;48.380;9.744;2023-02-03T08:44:20;6.10;99.90
18513;DHT22;9385;48.380;9.744;2023-02-03T08:46:48;6.10;99.90
18513;DHT22;9385;48.380;9.744;2023-02-03T08:49:15;6.20;99.90
18513;DHT22;9385;48.380;9.744;2023-02-03T08:51:44;6.10;99.90
18513;DHT22;9385;48.380;9.744;2023-02-03T08:54:11;6.10;99.90
18513;DHT22;9385;48.380;9.744;2023-02-03T08:56:38;6.10;99.90
18513;DHT22;9385;48.380;9.744;2023-02-03T08:59:05;6.20;99.90
18513;DHT22;9385;48.380;9.744;2023-02-03T09:01:32;6.20;99.90
18513;DHT22;9385;48.380;9.744;2023-02-03T09:03:59;6.20;99.90
18513;DHT22;9385;48.380;9.744;2023-02-03T09:06:28;6.20;99.90
18513;DHT22;9385;48.380;9.744;2023-02-03T09:08:57;6.20;99.90
18513;DHT22;9385;48.380;9.744;2023-02-03T09:11:23;6.20;99.90
18513;DHT22;9385;48.380;9.744;2023-02-03T09:13:50;6.20;99.90
18513;DHT22;9385;48.380;9.744;2023-02-03T09:16:18;6.20;99.90
18513;DHT22;9385;48.380;9.744;2023-02-03T09:18:46;6.20;99.90
18513;DHT22;9385;48.380;9.744;2023-02-03T09:21:14;6.20;99.90
18513;DHT22;9385;48.380;9.744;2023-02-03T09:23:41;6.20;99.90
18513;DHT22;9385;48.380;9.744;2023-02-03T09:26:11;6.20;99.90
18513;DHT22;9385;48.380;9.744;2023-02-03T09:28:39;6.30;99.90
18513;DHT22;9385;48.380;9.744;2023-02-03T09:31:07;6.30;99.90
18513;DHT22;9385;48.380;9.744;2023-02-03T09:33:35;6.30;99.90
18513;DHT22;9385;48.380;9.744;2023-02-03T09:36:03;6.30;99.90
18513;DHT22;9385;48.380;9.744;2023-02-03T09:38:32;6.30;99.90
18513;DHT22;9385;48.380;9.744;2023-02-03T09:41:01;6.40;99.90
18513;DHT22;9385;48.380;9.744;2023-02-03T09:43:34;6.40;99.90
18513;DHT22;9385;48.380;9.744;2023-02-03T09:46:06;6.40;99.90
18513;DHT22;9385;48.380;9.744;2023-02-03T09:48:36;6.40;99.90
18513;DHT22;9385;48.380;9.744;2023-02-03T09:51:07;6.40;99.90
18513;DHT22;9385;48.380;9.744;2023-02-03T09:53:44;6.40;99.90
18513;DHT22;9385;48.380;9.744;2023-02-03T09:56:22;6.50;99.90
18513;DHT22;9385;48.380;9.744;2023-02-03T09:58:52;6.50;99.90
18513;DHT22;9385;48.380;9.744;2023-02-03T10:01:20;6.60;99.90
18513;DHT22;9385;48.380;9.744;2023-02-03T10:03:52;6.60;99.90
18513;DHT22;9385;48.380;9.744;2023-02-03T10:06:27;6.60;99.90
18513;DHT22;9385;48.380;9.744;2023-02-03T10:09:19;6.60;99.90
18513;DHT22;9385;48.380;9.744;2023-02-03T10:15:23;6.60;99.90
18513;DHT22;9385;48.380;9.744;2023-02-03T10:17:57;6.60;99.90
18513;DHT22;9385;48.380;9.744;2023-02-03T10:20:29;6.60;99.90
18513;DHT22;9385;48.380;9.744;2023-02-03T10:23:03;6.70;99.90
18513;DHT22;9385;48.380;9.744;2023-02-03T10:25:34;6.70;99.90
18513;DHT22;9385;48.380;9.744;2023-02-03T10:28:09;6.70;99.90
18513;DHT22;9385;48.380;9.744;2023-02-03T10:30:41;6.60;99.90
18513;DHT22;9385;48.380;9.744;2023-02-03T10:33:13;6.60;99.90
18513;DHT22;9385;48.380;9.744;2023-02-03T10:35:48;6.60;99.90
18513;DHT22;9385;48.380;9.744;2023-02-03T10:38:23;6.70;99.90
18513;DHT22;9385;48.380;9.744;2023-02-03T10:40:51;6.70;99.90
18513;DHT22;9385;48.380;9.744;2023-02-03T10:43:17;6.70;99.90
18513;DHT22;9385;48.380;9.744;2023-02-03T10:46:03;6.70;99.90
18513;DHT22;9385;48.380;9.744;2023-02-03T10:48:30;6.80;99.90
18513;DHT22;9385;48.380;9.744;2023-02-03T10:50:57;6.80;99.90
18513;DHT22;9385;48.380;9.744;2023-02-03T10:53:26;6.80;99.90
18513;DHT22;9385;48.380;9.744;2023-02-03T10:56:03;6.80;99.90
18513;DHT22;9385;48.380;9.744;2023-02-03T10:58:32;6.80;99.90
18513;DHT22;9385;48.380;9.744;2023-02-03T11:01:08;6.80;99.90
18513;DHT22;9385;48.380;9.744;2023-02-03T11:03:35;6.80;99.90
18513;DHT22;9385;48.380;9.744;2023-02-03T11:06:05;6.80;99.90
18513;DHT22;9385;48.380;9.744;2023-02-03T11:08:34;6.80;99.90
18513;DHT22;9385;48.380;9.744;2023-02-03T11:11:03;6.90;99.90
18513;DHT22;9385;48.380;9.744;2023-02-03T11:13:30;6.90;99.90
18513;DHT22;9385;48.380;9.744;2023-02-03T11:15:58;6.90;99.90
18513;DHT22;9385;48.380;9.744;2023-02-03T11:18:39;7.00;99.90
18513;DHT22;9385;48.380;9.744;2023-02-03T11:21:08;7.10;99.90
18513;DHT22;9385;48.380;9.744;2023-02-03T11:23:37;7.10;99.90
18513;DHT22;9385;48.380;9.744;2023-02-03T11:26:11;7.10;99.90
18513;DHT22;9385;48.380;9.744;2023-02-03T11:28:41;7.10;99.90
18513;DHT22;9385;48.380;9.744;2023-02-03T11:31:16;7.10;99.90
18513;DHT22;9385;48.380;9.744;2023-02-03T11:33:54;7.10;99.90
18513;DHT22;9385;48.380;9.744;2023-02-03T11:36:25;7.20;99.90
18513;DHT22;9385;48.380;9.744;2023-02-03T11:39:08;7.20;99.90
18513;DHT22;9385;48.380;9.744;2023-02-03T11:41:37;7.30;99.90
18513;DHT22;9385;48.380;9.744;2023-02-03T11:44:11;7.30;99.90
18513;DHT22;9385;48.380;9.744;2023-02-03T11:46:38;7.40;99.90
18513;DHT22;9385;48.380;9.744;2023-02-03T11:49:11;7.40;99.90
18513;DHT22;9385;48.380;9.744;2023-02-03T11:51:46;7.50;99.90
18513;DHT22;9385;48.380;9.744;2023-02-03T11:54:24;7.50;99.90
18513;DHT22;9385;48.380;9.744;2023-02-03T11:57:17;7.50;99.90
18513;DHT22;9385;48.380;9.744;2023-02-03T11:59:54;7.50;99.90
18513;DHT22;9385;48.380;9.744;2023-02-03T12:02:48;7.60;99.90
18513;DHT22;9385;48.380;9.744;2023-02-03T12:05:37;7.60;99.90
18513;DHT22;9385;48.380;9.744;2023-02-03T12:08:21;7.60;99.90
18513;DHT22;9385;48.380;9.744;2023-02-03T12:10:59;7.70;99.90
18513;DHT22;9385;48.380;9.744;2023-02-03T12:13:48;7.70;99.90
18513;DHT22;9385;48.380;9.744;2023-02-03T12:16:41;7.70;99.90
18513;DHT22;9385;48.380;9.744;2023-02-03T12:19:20;7.70;99.90
18513;DHT22;9385;48.380;9.744;2023-02-03T12:21:54;7.80;99.90
18513;DHT22;9385;48.380;9.744;2023-02-03T12:24:31;7.80;99.90
18513;DHT22;9385;48.380;9.744;2023-02-03T12:27:10;7.80;99.90
18513;DHT22;9385;48.380;9.744;2023-02-03T12:29:40;7.80;99.90
18513;DHT22;9385;48.380;9.744;2023-02-03T12:32:17;7.90;99.90
18513;DHT22;9385;48.380;9.744;2023-02-03T12:34:49;8.00;99.90
18513;DHT22;9385;48.380;9.744;2023-02-03T12:37:22;8.00;99.90
18513;DHT22;9385;48.380;9.744;2023-02-03T12:39:52;8.00;99.90
18513;DHT22;9385;48.380;9.744;2023-02-03T12:42:20;8.00;99.90
18513;DHT22;9385;48.380;9.744;2023-02-03T12:44:53;8.00;99.90
18513;DHT22;9385;48.380;9.744;2023-02-03T12:47:26;8.00;99.90
18513;DHT22;9385;48.380;9.744;2023-02-03T12:49:58;8.10;99.90
18513;DHT22;9385;48.380;9.744;2023-02-03T12:52:30;8.10;99.90
18513;DHT22;9385;48.380;9.744;2023-02-03T12:55:05;8.10;99.90
18513;DHT22;9385;48.380;9.744;2023-02-03T12:57:37;8.20;99.90
18513;DHT22;9385;48.380;9.744;2023-02-03T13:00:15;8.20;99.90
18513;DHT22;9385;48.380;9.744;2023-02-03T13:02:55;8.20;99.90
18513;DHT22;9385;48.380;9.744;2023-02-03T13:05:29;8.30;99.90
18513;DHT22;9385;48.380;9.744;2023-02-03T13:08:05;8.30;99.90
18513;DHT22;9385;48.380;9.744;2023-02-03T13:10:37;8.30;99.90
18513;DHT22;9385;48.380;9.744;2023-02-03T13:13:08;8.30;99.90
18513;DHT22;9385;48.380;9.744;2023-02-03T13:15:39;8.30;99.90
18513;DHT22;9385;48.380;9.744;2023-02-03T13:18:11;8.20;99.90
18513;DHT22;9385;48.380;9.744;2023-02-03T13:20:41;8.20;99.90
18513;DHT22;9385;48.380;9.744;2023-02-03T13:23:12;8.20;99.90
18513;DHT22;9385;48.380;9.744;2023-02-03T13:25:49;8.20;99.90
18513;DHT22;9385;48.380;9.744;2023-02-03T13:28:24;8.10;99.90
18513;DHT22;9385;48.380;9.744;2023-02-03T13:31:12;8.10;99.90
18513;DHT22;9385;48.380;9.744;2023-02-03T13:33:56;8.10;99.90
18513;DHT22;9385;48.380;9.744;2023-02-03T13:39:54;8.10;99.90
18513;DHT22;9385;48.380;9.744;2023-02-03T13:42:26;8.10;99.90
18513;DHT22;9385;48.380;9.744;2023-02-03T13:44:57;8.00;99.90
18513;DHT22;9385;48.380;9.744;2023-02-03T13:47:28;8.00;99.90
18513;DHT22;9385;48.380;9.744;2023-02-03T13:49:58;8.00;99.90
18513;DHT22;9385;48.380;9.744;2023-02-03T13:52:33;8.00;99.90
18513;DHT22;9385;48.380;9.744;2023-02-03T13:55:02;7.90;99.90
18513;DHT22;9385;48.380;9.744;2023-02-03T13:57:36;7.90;99.90
18513;DHT22;9385;48.380;9.744;2023-02-03T14:00:06;7.90;99.90
18513;DHT22;9385;48.380;9.744;2023-02-03T14:02:44;7.90;99.90
18513;DHT22;9385;48.380;9.744;2023-02-03T14:05:41;7.90;99.90
18513;DHT22;9385;48.380;9.744;2023-02-03T14:11:39;7.90;99.90
18513;DHT22;9385;48.380;9.744;2023-02-03T14:14:44;7.80;99.90
18513;DHT22;9385;48.380;9.744;2023-02-03T14:20:43;7.80;99.90
18513;DHT22;9385;48.380;9.744;2023-02-03T14:23:15;7.80;99.90
18513;DHT22;9385;48.380;9.744;2023-02-03T14:25:47;7.80;99.90
18513;DHT22;9385;48.380;9.744;2023-02-03T14:28:19;7.90;99.90
18513;DHT22;9385;48.380;9.744;2023-02-03T14:31:04;7.80;99.90
18513;DHT22;9385;48.380;9.744;2023-02-03T14:34:04;7.80;99.90
18513;DHT22;9385;48.380;9.744;2023-02-03T14:36:45;7.80;99.90
18513;DHT22;9385;48.380;9.744;2023-02-03T14:39:51;7.80;99.90
18513;DHT22;9385;48.380;9.744;2023-02-03T14:42:33;7.70;99.90
18513;DHT22;9385;48.380;9.744;2023-02-03T14:45:15;7.70;99.90
18513;DHT22;9385;48.380;9.744;2023-02-03T14:47:54;7.70;99.90
18513;DHT22;9385;48.380;9.744;2023-02-03T14:50:36;7.70;99.90
18513;DHT22;9385;48.380;9.744;2023-02-03T14:53:19;7.70;99.90
18513;DHT22;9385;48.380;9.744;2023-02-03T14:55:58;7.70;99.90
18513;DHT22;9385;48.380;9.744;2023-02-03T14:58:29;7.70;99.90
18513;DHT22;9385;48.380;9.744;2023-02-03T15:00:58;7.70;99.90
18513;DHT22;9385;48.380;9.744;2023-02-03T15:03:26;7.70;99.90
18513;DHT22;9385;48.380;9.744;2023-02-03T15:05:58;7.70;99.90
18513;DHT22;9385;48.380;9.744;2023-02-03T15:08:41;7.70;99.90
18513;DHT22;9385;48.380;9.744;2023-02-03T15:11:27;7.70;99.90
18513;DHT22;9385;48.380;9.744;2023-02-03T15:13:55;7.70;99.90
18513;DHT22;9385;48.380;9.744;2023-02-03T15:16:24;7.70;99.90
18513;DHT22;9385;48.380;9.744;2023-02-03T15:18:56;7.60;99.90
18513;DHT22;9385;48.380;9.744;2023-02-03T15:21:24;7.60;99.90
18513;DHT22;9385;48.380;9.744;2023-02-03T15:23:51;7.60;99.90
18513;DHT22;9385;48.380;9.744;2023-02-03T15:26:20;7.60;99.90
18513;DHT22;9385;48.380;9.744;2023-02-03T15:28:56;7.70;99.90
18513;DHT22;9385;48.380;9.744;2023-02-03T15:31:28;7.70;99.90
18513;DHT22;9385;48.380;9.744;2023-02-03T15:34:00;7.60;99.90
18513;DHT22;9385;48.380;9.744;2023-02-03T15:36:37;7.60;99.90
18513;DHT22;9385;48.380;9.744;2023-02-03T15:39:19;7.70;99.90
18513;DHT22;9385;48.380;9.744;2023-02-03T15:41:50;7.60;99.90
18513;DHT22;9385;48.380;9.744;2023-02-03T15:44:25;7.60;99.90
18513;DHT22;9385;48.380;9.744;2023-02-03T15:46:55;7.60;99.90
18513;DHT22;9385;48.380;9.744;2023-02-03T15:49:25;7.60;99.90
18513;DHT22;9385;48.380;9.744;2023-02-03T15:51:55;7.60;99.90
18513;DHT22;9385;48.380;9.744;2023-02-03T15:54:25;7.60;99.90
18513;DHT22;9385;48.380;9.744;2023-02-03T15:56:56;7.60;99.90
18513;DHT22;9385;48.380;9.744;2023-02-03T15:59:25;7.70;99.90
18513;DHT22;9385;48.380;9.744;2023-02-03T16:01:56;7.70;99.90
18513;DHT22;9385;48.380;9.744;2023-02-03T16:04:24;7.60;99.90
18513;DHT22;9385;48.380;9.744;2023-02-03T16:06:53;7.60;99.90
18513;DHT22;9385;48.380;9.744;2023-02-03T16:09:31;7.60;99.90
18513;DHT22;9385;48.380;9.744;2023-02-03T16:12:15;7.60;99.90
18513;DHT22;9385;48.380;9.744;2023-02-03T16:14:43;7.50;99.90
18513;DHT22;9385;48.380;9.744;2023-02-03T16:17:27;7.50;99.90
18513;DHT22;9385;48.380;9.744;2023-02-03T16:20:20;7.40;99.90
18513;DHT22;9385;48.380;9.744;2023-02-03T16:23:00;7.40;99.90
18513;DHT22;9385;48.380;9.744;2023-02-03T16:25:29;7.40;99.90
18513;DHT22;9385;48.380;9.744;2023-02-03T16:27:57;7.40;99.90
18513;DHT22;9385;48.380;9.744;2023-02-03T16:30:52;7.30;99.90
18513;DHT22;9385;48.380;9.744;2023-02-03T16:33:38;7.30;99.90
18513;DHT22;9385;48.380;9.744;2023-02-03T16:36:22;7.30;99.90
18513;DHT22;9385;48.380;9.744;2023-02-03T16:39:10;7.30;99.90
18513;DHT22;9385;48.380;9.744;2023-02-03T16:41:56;7.30;99.90
18513;DHT22;9385;48.380;9.744;2023-02-03T16:44:41;7.30;99.90
18513;DHT22;9385;48.380;9.744;2023-02-03T16:47:28;7.30;99.90